Time;durP1;ratioP1;P1;durP2;ratioP2;P2;SDS_P1;SDS_P2;PMS_P1;PMS_P2;Temp;Humidity;BMP_temperature;BMP_pressure;BME280_temperature;BME280_humidity;BME280_pressure;Samples;Min_cycle;Max_cycle;Signal;HPM_P1;HPM_P2
2024/03/11 06:47:20;;;;;;;;;54.33;43.33;;;;;;;;5097417;27;13523;-82
2024/03/11 06:51:42;;;;;;;;;49.67;41.67;;;;;;;;5096953;27;13561;-79
2024/03/11 06:54:07;;;;;;;;;48.67;41.00;;;;;;;;5067872;28;8809;-75
2024/03/11 06:56:32;;;;;;;;;43.00;38.33;;;;;;;;5067884;28;8805;-76
2024/03/11 06:58:58;;;;;;;;;44.33;38.67;;;;;;;;5022445;27;10934;-75
2024/03/11 20:43:07;;;;;;;;;21.50;17.50;;;;;;;;5096204;27;14285;-66
2024/03/11 20:45:32;;;;;;;;;16.25;11.25;;;;;;;;5066247;28;11556;-71
2024/03/11 20:47:58;;;;;;;;;9.75;8.00;;;;;;;;5066366;28;11546;-71
2024/03/11 20:50:24;;;;;;;;;16.00;12.00;;;;;;;;5068078;28;8928;-67
2024/03/11 20:52:50;;;;;;;;;16.50;13.25;;;;;;;;5065425;28;11640;-68
2024/03/11 20:55:15;;;;;;;;;11.50;11.50;;;;;;;;5066495;28;8824;-69
2024/03/11 20:57:44;;;;;;;;;11.50;10.50;;;;;;;;5066545;28;8805;-69
2024/03/11 21:00:16;;;;;;;;;13.25;12.00;;;;;;;;5066123;28;9514;-69
2024/03/11 21:02:45;;;;;;;;;13.25;11.00;;;;;;;;5066300;28;11629;-69
2024/03/11 21:05:11;;;;;;;;;11.25;10.50;;;;;;;;5064708;28;11526;-69
2024/03/11 21:07:37;;;;;;;;;10.00;10.00;;;;;;;;5065028;28;11502;-72
2024/03/11 21:10:04;;;;;;;;;12.00;11.00;;;;;;;;5066252;28;8803;-69
2024/03/11 21:12:29;;;;;;;;;11.25;9.75;;;;;;;;5066200;28;11545;-69
2024/03/11 21:14:54;;;;;;;;;9.25;8.00;;;;;;;;5064308;28;11578;-69
2024/03/11 21:17:22;;;;;;;;;12.50;8.50;;;;;;;;5052684;28;8807;-69
2024/03/11 21:19:52;;;;;;;;;10.25;8.50;;;;;;;;5046927;28;8868;-69
2024/03/11 21:22:19;;;;;;;;;7.00;7.00;;;;;;;;5046665;28;11566;-69
2024/03/11 21:27:16;;;;;;;;;9.75;9.75;;;;;;;;5047101;28;11610;-69
2024/03/11 21:29:44;;;;;;;;;10.00;10.00;;;;;;;;5058907;28;11566;-69
2024/03/11 21:32:12;;;;;;;;;8.00;7.50;;;;;;;;5066594;28;11649;-69
2024/03/11 21:34:45;;;;;;;;;9.50;5.00;;;;;;;;5065019;28;11503;-69
2024/03/11 21:37:11;;;;;;;;;8.00;8.00;;;;;;;;5079429;28;11488;-68
2024/03/11 21:39:37;;;;;;;;;9.50;8.00;;;;;;;;5068316;28;11473;-68
2024/03/11 21:42:02;;;;;;;;;7.25;6.75;;;;;;;;5066295;28;8852;-70
2024/03/11 21:44:28;;;;;;;;;8.00;8.00;;;;;;;;5065029;28;8837;-69
2024/03/11 21:46:53;;;;;;;;;8.00;8.00;;;;;;;;5066284;28;8790;-69
2024/03/11 21:49:19;;;;;;;;;10.00;10.00;;;;;;;;5073370;28;8799;-68
2024/03/11 21:51:44;;;;;;;;;10.00;9.25;;;;;;;;5085532;28;8834;-70
2024/03/11 21:54:10;;;;;;;;;12.50;11.00;;;;;;;;5071911;28;8795;-70
2024/03/11 21:56:37;;;;;;;;;6.00;4.25;;;;;;;;5053714;28;8812;-70
2024/03/11 21:59:04;;;;;;;;;12.50;10.00;;;;;;;;5057062;28;11458;-69
2024/03/11 22:01:30;;;;;;;;;14.50;11.00;;;;;;;;5052891;28;8789;-69
2024/03/11 22:03:55;;;;;;;;;12.75;11.50;;;;;;;;5052679;28;11519;-70
2024/03/11 22:06:20;;;;;;;;;8.00;8.00;;;;;;;;5058715;28;8856;-69
2024/03/11 22:08:46;;;;;;;;;8.00;5.75;;;;;;;;5058846;28;8793;-68
2024/03/11 22:11:11;;;;;;;;;12.25;12.00;;;;;;;;5052288;28;8856;-69
2024/03/11 22:13:37;;;;;;;;;10.50;9.00;;;;;;;;5051317;28;8843;-69
2024/03/11 22:16:03;;;;;;;;;8.00;7.25;;;;;;;;5052600;28;8794;-68
2024/03/11 22:18:28;;;;;;;;;11.25;11.00;;;;;;;;5063912;28;11607;-69
2024/03/11 22:20:54;;;;;;;;;8.00;8.00;;;;;;;;5072066;28;8920;-69
2024/03/11 22:23:20;;;;;;;;;7.75;7.00;;;;;;;;5067560;28;8890;-68
2024/03/11 22:25:47;;;;;;;;;8.50;8.00;;;;;;;;5050615;28;11489;-68
2024/03/11 22:28:12;;;;;;;;;8.00;7.50;;;;;;;;5050711;28;11719;-69
2024/03/11 22:30:38;;;;;;;;;6.75;6.75;;;;;;;;5051816;28;11497;-69
2024/03/11 22:33:04;;;;;;;;;8.50;6.25;;;;;;;;5052104;28;8859;-69
2024/03/11 22:35:29;;;;;;;;;7.50;7.50;;;;;;;;5052119;28;8793;-71
2024/03/11 22:37:55;;;;;;;;;8.00;6.00;;;;;;;;5064548;28;8829;-69
2024/03/11 22:40:20;;;;;;;;;7.75;7.75;;;;;;;;5051869;28;8828;-69
2024/03/11 22:42:47;;;;;;;;;7.00;6.00;;;;;;;;5051948;28;11528;-69
2024/03/11 22:45:13;;;;;;;;;7.50;6.50;;;;;;;;5050897;28;9921;-69
2024/03/11 22:47:38;;;;;;;;;6.50;5.00;;;;;;;;5051802;28;11686;-70
2024/03/11 22:50:05;;;;;;;;;8.00;6.00;;;;;;;;5051207;28;8820;-68
2024/03/11 22:52:32;;;;;;;;;6.00;6.00;;;;;;;;5051329;28;8836;-67
2024/03/11 22:54:58;;;;;;;;;9.00;6.50;;;;;;;;5050662;28;11475;-68
2024/03/11 22:57:23;;;;;;;;;8.00;5.75;;;;;;;;5033235;28;11497;-67
2024/03/11 22:59:48;;;;;;;;;5.00;5.00;;;;;;;;5032197;28;8902;-68
2024/03/11 23:02:17;;;;;;;;;7.50;5.00;;;;;;;;5032337;28;8803;-67
2024/03/11 23:04:43;;;;;;;;;7.25;6.00;;;;;;;;5029801;28;8817;-68
2024/03/11 23:07:09;;;;;;;;;8.50;8.50;;;;;;;;5056951;28;11463;-68
2024/03/11 23:09:34;;;;;;;;;6.25;6.25;;;;;;;;5054034;28;11496;-67
2024/03/11 23:11:59;;;;;;;;;11.25;8.00;;;;;;;;5051670;28;8851;-67
2024/03/11 23:14:29;;;;;;;;;9.25;9.00;;;;;;;;5051789;28;8819;-67
